Time;durP1;ratioP1;P1;durP2;ratioP2;P2;SDS_P1;SDS_P2;PMS_P1;PMS_P2;Temp;Humidity;BMP_temperature;BMP_pressure;BME280_temperature;BME280_humidity;BME280_pressure;Samples;Min_cycle;Max_cycle;Signal;HPM_P1;HPM_P2
2021/10/10 00:01:12;;;;;;;26.67;16.77;;;8.40;76.90;;;;;;5016152;28;20800;-77
2021/10/10 00:03:37;;;;;;;25.60;15.90;;;8.40;78.00;;;;;;5022761;28;20389;-76
2021/10/10 00:06:03;;;;;;;26.43;15.80;;;8.30;78.90;;;;;;5016782;28;20444;-77
2021/10/10 00:08:29;;;;;;;25.13;14.77;;;8.30;79.10;;;;;;5025204;28;20415;-76
2021/10/10 00:10:54;;;;;;;25.70;16.40;;;8.30;79.00;;;;;;5016542;28;20396;-76
2021/10/10 00:13:20;;;;;;;26.87;16.90;;;8.20;79.20;;;;;;5011976;28;20404;-76
2021/10/10 00:15:45;;;;;;;31.13;17.00;;;8.20;79.50;;;;;;5012892;28;20483;-76
2021/10/10 00:18:11;;;;;;;28.60;16.10;;;8.20;80.30;;;;;;5021125;28;20412;-76
2021/10/10 00:20:37;;;;;;;27.58;15.60;;;8.20;81.40;;;;;;5018720;28;20874;-77
2021/10/10 00:23:03;;;;;;;28.08;16.10;;;8.30;82.00;;;;;;5018657;28;20404;-76
2021/10/10 00:25:28;;;;;;;24.48;15.73;;;8.30;79.60;;;;;;5018218;28;20492;-77
2021/10/10 00:27:54;;;;;;;28.43;16.40;;;8.30;78.80;;;;;;5011880;28;20472;-77
2021/10/10 00:30:21;;;;;;;23.50;15.60;;;8.20;78.50;;;;;;5007946;28;20758;-77
2021/10/10 00:32:47;;;;;;;22.67;14.60;;;8.20;77.20;;;;;;5022716;28;20408;-77
2021/10/10 00:35:14;;;;;;;22.87;14.53;;;8.30;75.30;;;;;;5022451;28;20957;-77
2021/10/10 00:37:41;;;;;;;24.55;13.93;;;8.30;74.20;;;;;;5015051;28;20503;-77
2021/10/10 00:40:08;;;;;;;22.50;13.90;;;8.20;74.20;;;;;;5011317;28;20437;-79
2021/10/10 00:42:33;;;;;;;24.85;14.15;;;8.20;73.40;;;;;;4994926;28;20395;-75
2021/10/10 00:44:59;;;;;;;21.87;14.80;;;8.20;72.30;;;;;;4993639;28;20525;-77
2021/10/10 00:47:25;;;;;;;23.40;14.60;;;8.20;71.30;;;;;;5000204;28;20401;-77
2021/10/10 00:49:50;;;;;;;21.60;13.60;;;8.20;71.50;;;;;;4995136;28;20737;-77
2021/10/10 00:52:17;;;;;;;19.90;13.45;;;8.10;71.50;;;;;;4997792;28;20464;-75
2021/10/10 00:54:47;;;;;;;21.98;14.10;;;8.10;71.80;;;;;;4992040;28;20872;-76
2021/10/10 00:57:14;;;;;;;21.47;14.30;;;8.10;73.20;;;;;;4999935;28;20405;-76
2021/10/10 00:59:44;;;;;;;22.45;13.70;;;8.00;73.70;;;;;;4995200;28;20415;-78
2021/10/10 01:02:10;;;;;;;23.42;13.85;;;8.00;74.30;;;;;;4991813;28;20428;-76
2021/10/10 01:04:36;;;;;;;23.70;14.07;;;8.00;74.30;;;;;;4992832;28;20401;-76
2021/10/10 01:07:03;;;;;;;24.00;13.73;;;7.90;74.70;;;;;;4993178;28;20478;-76
2021/10/10 01:09:29;;;;;;;25.40;14.83;;;7.90;74.30;;;;;;4992179;28;20521;-76
2021/10/10 01:11:56;;;;;;;27.55;15.50;;;7.90;74.90;;;;;;4992612;28;20422;-76
2021/10/10 01:14:23;;;;;;;26.00;16.40;;;7.80;75.10;;;;;;4991827;28;20898;-76
2021/10/10 01:16:48;;;;;;;24.85;14.55;;;7.80;75.60;;;;;;4992371;28;20426;-76
2021/10/10 01:19:14;;;;;;;26.10;14.00;;;7.80;75.70;;;;;;5004584;28;20388;-76
2021/10/10 01:21:40;;;;;;;22.85;13.52;;;7.80;74.90;;;;;;5012238;28;20904;-76
2021/10/10 01:24:06;;;;;;;23.85;13.93;;;7.80;73.80;;;;;;5011973;28;20890;-76
2021/10/10 01:26:32;;;;;;;22.67;13.85;;;7.80;74.30;;;;;;5010281;28;20448;-76
2021/10/10 01:28:57;;;;;;;24.88;13.80;;;7.70;75.40;;;;;;5014735;28;20393;-76
2021/10/10 01:31:23;;;;;;;23.10;14.50;;;7.70;74.30;;;;;;4997977;28;20390;-76
2021/10/10 01:33:49;;;;;;;20.40;13.70;;;7.70;74.80;;;;;;5011840;28;20829;-77
2021/10/10 01:36:15;;;;;;;24.50;14.30;;;7.70;74.80;;;;;;5016568;28;20397;-77
2021/10/10 01:38:42;;;;;;;21.83;13.68;;;7.70;75.70;;;;;;5020311;28;20388;-77
2021/10/10 01:41:09;;;;;;;25.35;15.32;;;7.70;75.80;;;;;;5004180;28;20391;-78
2021/10/10 01:43:35;;;;;;;24.10;13.90;;;7.60;77.00;;;;;;5002194;28;20516;-77
2021/10/10 01:46:01;;;;;;;22.23;13.80;;;7.50;78.80;;;;;;5005077;28;20394;-77
2021/10/10 01:48:26;;;;;;;24.63;14.50;;;7.50;78.70;;;;;;5001600;28;20401;-76
2021/10/10 01:50:52;;;;;;;19.90;13.43;;;7.50;79.10;;;;;;4997402;28;20477;-77
2021/10/10 01:53:17;;;;;;;21.88;15.27;;;7.50;79.00;;;;;;4998517;28;20382;-76
2021/10/10 01:55:46;;;;;;;27.63;14.25;;;7.40;79.70;;;;;;5000737;28;20402;-77
2021/10/10 01:58:12;;;;;;;27.87;14.87;;;7.40;79.70;;;;;;5003402;28;20424;-76
2021/10/10 02:00:38;;;;;;;23.15;14.70;;;7.40;80.00;;;;;;5011346;28;20658;-76
2021/10/10 02:03:03;;;;;;;22.42;14.70;;;7.40;79.00;;;;;;5014093;28;20385;-77
2021/10/10 02:05:29;;;;;;;23.38;15.80;;;7.40;80.00;;;;;;5015286;28;20392;-76
2021/10/10 02:07:55;;;;;;;29.58;15.98;;;7.40;80.40;;;;;;5015897;28;20432;-77
2021/10/10 02:10:21;;;;;;;22.08;14.88;;;7.40;80.70;;;;;;5016675;28;20392;-76
2021/10/10 02:12:47;;;;;;;19.95;14.27;;;7.30;80.30;;;;;;5018627;28;20389;-76
2021/10/10 02:15:12;;;;;;;28.50;15.57;;;7.30;80.70;;;;;;5005507;28;20788;-77
2021/10/10 02:17:38;;;;;;;28.27;16.40;;;7.30;81.10;;;;;;4997468;28;20517;-76
2021/10/10 02:20:08;;;;;;;27.47;15.37;;;7.30;80.60;;;;;;5007203;28;20397;-81
2021/10/10 02:22:34;;;;;;;28.45;14.90;;;7.30;79.80;;;;;;5017038;28;20390;-79
2021/10/10 02:25:00;;;;;;;23.65;14.75;;;7.30;79.70;;;;;;5017683;28;20389;-81
2021/10/10 02:27:26;;;;;;;30.40;17.10;;;7.20;79.80;;;;;;5042512;28;20391;-77
2021/10/10 02:29:52;;;;;;;27.02;14.45;;;7.20;81.00;;;;;;5027739;28;20405;-77
2021/10/10 02:32:17;;;;;;;28.00;15.40;;;7.20;80.40;;;;;;5034453;28;20408;-81
2021/10/10 02:34:43;;;;;;;25.90;15.57;;;7.20;80.60;;;;;;5018403;28;20427;-81
2021/10/10 02:37:09;;;;;;;26.13;15.80;;;7.20;80.50;;;;;;5017650;28;20405;-81
2021/10/10 02:39:35;;;;;;;26.30;15.00;;;7.20;81.10;;;;;;5020049;28;20439;-80
2021/10/10 02:42:00;;;;;;;21.92;14.82;;;7.20;80.80;;;;;;5014676;28;20415;-77
2021/10/10 02:44:26;;;;;;;23.40;14.30;;;7.20;80.90;;;;;;5019291;28;20419;-77
2021/10/10 02:46:53;;;;;;;27.05;14.75;;;7.10;80.10;;;;;;5018292;28;20399;-76
2021/10/10 02:49:18;;;;;;;22.67;14.87;;;7.20;80.10;;;;;;5018332;28;20455;-76
2021/10/10 02:51:44;;;;;;;29.70;15.10;;;7.20;78.90;;;;;;5006680;28;20398;-80
2021/10/10 02:54:09;;;;;;;22.92;14.55;;;7.20;79.00;;;;;;5002471;28;20390;-79
2021/10/10 02:56:35;;;;;;;23.30;13.90;;;7.10;79.30;;;;;;5000540;28;20410;-80
2021/10/10 02:59:00;;;;;;;24.70;13.80;;;7.10;79.20;;;;;;5006595;28;20390;-79
2021/10/10 03:01:26;;;;;;;24.17;14.77;;;7.10;78.70;;;;;;4998237;28;20386;-78
2021/10/10 03:03:52;;;;;;;28.92;16.20;;;7.10;78.70;;;;;;4999216;28;20461;-79
2021/10/10 03:06:17;;;;;;;24.52;14.82;;;7.10;79.10;;;;;;4999016;28;20481;-80
2021/10/10 03:08:43;;;;;;;27.42;14.48;;;7.10;78.70;;;;;;4998891;28;20387;-79
2021/10/10 03:11:09;;;;;;;24.03;14.40;;;7.20;79.10;;;;;;4998647;28;20425;-80
2021/10/10 03:13:35;;;;;;;23.92;14.18;;;7.20;77.80;;;;;;4997178;28;20387;-80
2021/10/10 03:16:00;;;;;;;22.90;14.13;;;7.10;78.20;;;;;;4997833;28;20401;-79
2021/10/10 03:18:27;;;;;;;22.67;14.53;;;7.20;79.10;;;;;;4997656;28;20410;-79
2021/10/10 03:20:52;;;;;;;24.85;14.07;;;7.20;79.20;;;;;;4998465;28;20390;-80
2021/10/10 03:23:18;;;;;;;25.60;14.50;;;7.20;76.60;;;;;;5002341;28;20401;-77
2021/10/10 03:25:44;;;;;;;23.83;14.90;;;7.20;76.50;;;;;;5019689;28;20440;-80
2021/10/10 03:28:09;;;;;;;28.80;14.80;;;7.20;76.70;;;;;;5018590;28;20468;-80
2021/10/10 03:30:35;;;;;;;23.47;14.77;;;7.20;76.70;;;;;;5017497;28;20415;-80
2021/10/10 03:33:00;;;;;;;26.87;15.30;;;7.20;76.00;;;;;;5017364;28;20453;-78
2021/10/10 03:35:26;;;;;;;21.53;14.30;;;7.20;76.40;;;;;;5022793;28;20404;-79
2021/10/10 03:37:51;;;;;;;29.20;15.97;;;7.20;74.90;;;;;;5023794;28;20416;-80
2021/10/10 03:40:17;;;;;;;28.53;14.53;;;7.20;74.30;;;;;;5014282;28;20816;-78
2021/10/10 03:42:42;;;;;;;23.87;14.90;;;7.20;73.60;;;;;;5000337;28;20394;-79
2021/10/10 03:45:09;;;;;;;22.80;14.53;;;7.20;74.20;;;;;;4998109;28;20409;-80
2021/10/10 03:47:35;;;;;;;25.38;16.20;;;7.20;72.70;;;;;;4997537;28;20497;-78
2021/10/10 03:50:01;;;;;;;24.65;14.80;;;7.20;71.50;;;;;;4997040;28;20465;-80
2021/10/10 03:52:27;;;;;;;26.47;15.57;;;7.20;70.60;;;;;;4998316;28;20392;-80
2021/10/10 03:57:37;;;;;;;24.88;14.45;;;7.20;70.80;;;;;;5007867;28;20447;-80
2021/10/10 04:00:07;;;;;;;26.77;14.60;;;7.20;71.50;;;;;;5002159;28;20395;-79
2021/10/10 04:02:33;;;;;;;22.33;14.30;;;7.20;71.90;;;;;;4998144;28;20418;-80
2021/10/10 04:05:00;;;;;;;27.63;14.40;;;7.10;72.40;;;;;;4998427;28;20386;-79
2021/10/10 04:07:26;;;;;;;23.95;14.65;;;7.10;72.00;;;;;;4997746;28;20398;-80
2021/10/10 04:09:52;;;;;;;24.33;14.88;;;7.10;70.80;;;;;;4996520;28;20397;-79
2021/10/10 04:12:18;;;;;;;24.65;15.00;;;7.10;70.80;;;;;;4996565;28;20426;-79
2021/10/10 04:14:43;;;;;;;24.05;14.90;;;7.20;71.20;;;;;;4996557;28;20382;-78
2021/10/10 04:17:09;;;;;;;23.98;14.65;;;7.10;71.80;;;;;;5005085;28;20453;-76
2021/10/10 04:19:34;;;;;;;21.63;14.90;;;7.20;69.80;;;;;;5015444;28;20402;-77
2021/10/10 04:22:01;;;;;;;24.63;14.80;;;7.10;70.60;;;;;;5023587;28;20488;-79
2021/10/10 04:24:26;;;;;;;22.70;13.87;;;7.20;69.90;;;;;;5018006;28;20389;-79
2021/10/10 04:26:52;;;;;;;23.13;14.30;;;7.20;68.50;;;;;;5017617;28;20387;-79
2021/10/10 04:29:18;;;;;;;29.48;15.55;;;7.20;67.20;;;;;;5016724;28;20389;-79
2021/10/10 04:31:44;;;;;;;24.27;13.73;;;7.20;67.20;;;;;;4996896;28;20473;-78
2021/10/10 04:34:11;;;;;;;24.63;13.82;;;7.30;68.70;;;;;;4997288;28;20815;-79
2021/10/10 04:36:37;;;;;;;26.57;14.37;;;7.20;67.60;;;;;;5013005;28;20420;-79
2021/10/10 04:39:03;;;;;;;26.00;14.45;;;7.10;69.00;;;;;;5016166;28;20388;-79
2021/10/10 04:41:29;;;;;;;27.27;14.68;;;7.00;70.20;;;;;;5001185;28;20755;-79
2021/10/10 04:43:54;;;;;;;22.85;14.25;;;7.00;71.60;;;;;;5006897;28;20405;-77
2021/10/10 04:46:20;;;;;;;21.63;14.05;;;7.00;72.10;;;;;;5006999;28;20398;-78
2021/10/10 04:48:46;;;;;;;28.20;14.38;;;7.00;72.90;;;;;;5005945;28;20394;-80
2021/10/10 04:51:11;;;;;;;21.10;13.90;;;7.00;70.40;;;;;;4996879;28;20405;-79
2021/10/10 04:53:37;;;;;;;23.77;14.87;;;6.90;70.70;;;;;;4994355;28;20919;-78
2021/10/10 04:56:03;;;;;;;29.60;14.47;;;7.00;70.90;;;;;;4998250;28;20747;-79
2021/10/10 04:58:28;;;;;;;23.88;14.80;;;7.10;71.70;;;;;;5008775;28;20410;-80
2021/10/10 05:00:54;;;;;;;25.52;14.70;;;7.00;70.70;;;;;;5001037;28;20387;-77
2021/10/10 05:03:19;;;;;;;24.50;14.45;;;6.90;72.10;;;;;;4995452;28;20418;-77
2021/10/10 05:05:45;;;;;;;27.17;15.57;;;6.80;73.30;;;;;;5013288;28;20404;-77
2021/10/10 05:08:11;;;;;;;24.73;15.50;;;6.80;74.10;;;;;;5014696;28;20385;-77
2021/10/10 05:10:37;;;;;;;30.33;15.20;;;6.80;75.40;;;;;;5013372;28;20388;-77
2021/10/10 05:13:04;;;;;;;27.80;17.00;;;6.80;75.70;;;;;;5011580;28;20397;-77
2021/10/10 05:15:30;;;;;;;25.63;14.77;;;6.70;77.20;;;;;;5013515;28;20391;-77
2021/10/10 05:17:55;;;;;;;26.37;14.90;;;6.80;77.80;;;;;;5012838;28;20440;-77
2021/10/10 05:20:21;;;;;;;23.77;15.63;;;6.80;78.50;;;;;;5013528;28;20946;-77
2021/10/10 05:22:46;;;;;;;28.48;16.17;;;6.70;79.10;;;;;;5013485;28;20381;-77
2021/10/10 05:25:12;;;;;;;27.95;15.30;;;6.60;79.70;;;;;;5014203;28;20751;-77
2021/10/10 05:27:38;;;;;;;27.90;15.18;;;6.60;81.10;;;;;;5013280;28;20393;-77
2021/10/10 05:30:05;;;;;;;30.37;15.87;;;6.50;82.40;;;;;;5007433;28;20495;-77
2021/10/10 05:32:30;;;;;;;27.10;16.20;;;6.50;82.20;;;;;;5000382;28;20410;-77
2021/10/10 05:34:56;;;;;;;27.88;16.27;;;6.50;82.00;;;;;;5012758;28;20937;-77
2021/10/10 05:37:22;;;;;;;28.15;15.82;;;6.40;82.60;;;;;;4997071;28;20420;-76
2021/10/10 05:39:48;;;;;;;27.87;16.67;;;6.40;82.90;;;;;;5000673;28;20486;-77
2021/10/10 05:42:14;;;;;;;30.30;17.35;;;6.40;83.40;;;;;;5002430;28;20422;-78
2021/10/10 05:44:39;;;;;;;30.30;16.90;;;6.40;85.30;;;;;;5018169;28;20777;-78
2021/10/10 05:47:05;;;;;;;31.73;16.87;;;6.30;86.30;;;;;;5014447;28;20404;-78
2021/10/10 05:49:30;;;;;;;30.70;16.67;;;6.40;87.10;;;;;;5015944;28;20927;-77
2021/10/10 05:51:58;;;;;;;28.23;16.63;;;6.30;87.70;;;;;;5016282;28;20393;-77
2021/10/10 05:54:24;;;;;;;29.67;17.13;;;6.30;88.60;;;;;;5016942;28;20385;-77
2021/10/10 05:56:50;;;;;;;26.95;16.35;;;6.30;88.60;;;;;;5016013;28;20410;-79
2021/10/10 05:59:16;;;;;;;32.93;17.37;;;6.30;88.80;;;;;;5011643;28;20404;-77
2021/10/10 06:01:42;;;;;;;28.15;17.08;;;6.30;87.80;;;;;;5014009;28;20458;-77
2021/10/10 06:04:08;;;;;;;27.10;16.98;;;6.30;88.40;;;;;;5008568;28;20869;-76
2021/10/10 06:06:34;;;;;;;31.77;16.80;;;6.30;88.70;;;;;;5018675;28;20436;-77
2021/10/10 06:09:00;;;;;;;30.73;17.33;;;6.40;88.70;;;;;;5017380;28;20496;-77
2021/10/10 06:11:27;;;;;;;26.90;16.85;;;6.40;88.80;;;;;;5017399;28;20930;-75
2021/10/10 06:13:53;;;;;;;30.23;16.98;;;6.50;86.70;;;;;;5020437;28;20484;-76
2021/10/10 06:16:18;;;;;;;29.83;17.10;;;6.50;86.10;;;;;;5018803;28;20432;-77
2021/10/10 06:18:44;;;;;;;27.37;16.13;;;6.50;85.30;;;;;;5019695;28;20397;-77
2021/10/10 06:21:09;;;;;;;27.47;16.87;;;6.60;85.00;;;;;;5010293;28;20465;-78
2021/10/10 06:23:35;;;;;;;31.20;17.20;;;6.60;84.10;;;;;;5000359;28;20409;-76
2021/10/10 06:26:00;;;;;;;30.73;17.50;;;6.70;83.50;;;;;;5004324;28;20415;-77
2021/10/10 06:28:26;;;;;;;30.05;17.08;;;6.70;81.60;;;;;;5016194;28;20413;-77
2021/10/10 06:30:53;;;;;;;28.98;17.25;;;6.80;79.90;;;;;;5009086;28;20426;-76
2021/10/10 06:33:19;;;;;;;30.92;17.20;;;6.90;78.40;;;;;;5009019;28;20654;-76
2021/10/10 06:35:45;;;;;;;32.20;17.27;;;6.90;77.00;;;;;;5017540;28;20866;-77
2021/10/10 06:38:10;;;;;;;29.40;17.42;;;7.00;76.30;;;;;;5017537;28;20408;-78
2021/10/10 06:40:36;;;;;;;28.15;17.38;;;7.00;77.40;;;;;;5008209;28;20404;-77
2021/10/10 06:43:02;;;;;;;27.08;17.30;;;7.10;77.30;;;;;;5000349;28;20406;-77
2021/10/10 06:45:27;;;;;;;26.15;16.80;;;7.10;77.40;;;;;;5005360;28;20885;-75
2021/10/10 06:47:53;;;;;;;28.45;17.27;;;7.20;75.20;;;;;;5016978;28;20757;-80
2021/10/10 06:50:19;;;;;;;30.88;16.50;;;7.30;75.70;;;;;;5015443;28;20405;-75
2021/10/10 06:52:44;;;;;;;25.90;16.00;;;7.30;71.90;;;;;;5016773;28;20484;-77
2021/10/10 06:55:10;;;;;;;32.08;16.58;;;7.40;72.20;;;;;;5014082;28;20416;-78
2021/10/10 06:57:35;;;;;;;29.02;16.58;;;7.50;68.80;;;;;;5013562;28;20410;-75
2021/10/10 07:00:01;;;;;;;24.45;15.57;;;7.60;66.30;;;;;;5021330;28;20405;-75
2021/10/10 07:02:29;;;;;;;27.02;16.42;;;7.70;64.80;;;;;;5019019;28;20401;-75
2021/10/10 07:04:57;;;;;;;27.98;15.88;;;7.80;61.80;;;;;;5017726;28;20740;-77
2021/10/10 07:07:23;;;;;;;29.13;16.30;;;7.90;61.60;;;;;;5008795;28;20452;-76
2021/10/10 07:09:49;;;;;;;32.92;16.30;;;8.00;60.70;;;;;;4999366;28;20446;-77
2021/10/10 07:12:15;;;;;;;25.67;15.60;;;8.00;59.60;;;;;;4999431;28;20401;-76
2021/10/10 07:14:41;;;;;;;32.03;17.33;;;8.10;58.90;;;;;;5002046;28;20432;-77
2021/10/10 07:17:06;;;;;;;28.10;16.63;;;8.20;57.70;;;;;;5018192;28;20416;-75
2021/10/10 07:19:39;;;;;;;26.73;16.67;;;8.30;57.30;;;;;;5018033;28;20397;-76
2021/10/10 07:24:55;;;;;;;25.95;16.30;;;8.40;55.80;;;;;;5015230;28;20379;-77
2021/10/10 07:27:20;;;;;;;28.60;16.53;;;8.40;54.30;;;;;;5014639;28;20475;-78
2021/10/10 07:29:46;;;;;;;30.80;16.40;;;8.50;54.00;;;;;;5011351;28;20402;-77
2021/10/10 07:32:11;;;;;;;24.50;16.10;;;8.60;54.40;;;;;;5014958;28;20487;-76
2021/10/10 07:34:37;;;;;;;28.53;16.60;;;8.70;54.80;;;;;;5026575;28;20408;-76
2021/10/10 07:37:03;;;;;;;25.07;16.30;;;8.80;54.20;;;;;;5025085;28;20533;-76
2021/10/10 07:39:28;;;;;;;27.63;15.87;;;8.90;53.50;;;;;;5028078;28;20388;-78
2021/10/10 07:41:54;;;;;;;30.17;16.70;;;9.00;51.90;;;;;;5002607;28;20400;-77
2021/10/10 07:44:20;;;;;;;33.50;16.80;;;9.10;51.90;;;;;;5007037;28;20499;-77
2021/10/10 07:46:55;;;;;;;30.38;17.40;;;9.10;51.90;;;;;;5010331;28;20785;-78
2021/10/10 07:49:20;;;;;;;28.98;16.52;;;9.20;50.90;;;;;;5005350;28;20872;-78
2021/10/10 07:51:46;;;;;;;28.20;16.07;;;9.40;47.70;;;;;;5012637;28;20437;-78
2021/10/10 07:54:11;;;;;;;28.63;16.40;;;9.50;45.30;;;;;;5014815;28;20790;-78
2021/10/10 07:56:37;;;;;;;27.07;16.43;;;9.60;44.00;;;;;;5008663;28;20982;-77
2021/10/10 07:59:02;;;;;;;32.53;16.83;;;9.70;43.50;;;;;;5009134;28;20390;-75
2021/10/10 08:01:28;;;;;;;33.03;16.50;;;9.70;43.10;;;;;;5011295;28;20433;-77
2021/10/10 08:03:53;;;;;;;34.93;17.63;;;9.80;43.30;;;;;;5012333;28;20385;-77
2021/10/10 08:06:19;;;;;;;28.55;16.75;;;9.70;42.80;;;;;;5013589;28;20389;-77
2021/10/10 08:08:44;;;;;;;35.85;17.95;;;9.90;42.20;;;;;;5005659;28;20430;-77
2021/10/10 08:11:10;;;;;;;28.98;17.23;;;9.90;42.10;;;;;;5015516;28;20385;-76
2021/10/10 08:13:36;;;;;;;28.60;17.48;;;10.00;41.80;;;;;;5002764;28;20394;-76
2021/10/10 08:16:01;;;;;;;33.42;18.33;;;10.00;41.30;;;;;;5013051;28;20400;-78
2021/10/10 08:18:27;;;;;;;29.15;17.20;;;10.00;41.40;;;;;;5014297;28;20894;-76
2021/10/10 08:20:52;;;;;;;34.85;17.50;;;10.00;42.10;;;;;;5012146;28;20492;-76
2021/10/10 08:23:18;;;;;;;30.02;18.15;;;10.10;41.90;;;;;;5016530;28;20380;-78
2021/10/10 08:25:43;;;;;;;26.70;17.30;;;10.20;42.70;;;;;;5021587;28;20432;-78
2021/10/10 08:28:09;;;;;;;30.63;18.20;;;10.40;41.00;;;;;;4999341;28;20413;-77
2021/10/10 08:30:35;;;;;;;31.33;17.38;;;10.50;39.80;;;;;;5024574;28;20433;-76
2021/10/10 08:33:00;;;;;;;31.85;17.77;;;10.60;39.70;;;;;;5019708;28;20436;-76
2021/10/10 08:35:26;;;;;;;30.77;18.07;;;10.70;39.70;;;;;;5015443;28;20886;-77
2021/10/10 08:37:52;;;;;;;29.10;17.83;;;10.80;40.20;;;;;;5016447;28;20867;-77
2021/10/10 08:40:19;;;;;;;31.10;17.50;;;10.90;39.60;;;;;;5010463;28;20564;-76
2021/10/10 08:42:48;;;;;;;30.48;18.33;;;11.00;40.40;;;;;;5023250;28;20409;-77
2021/10/10 08:45:22;;;;;;;28.65;17.65;;;11.20;38.90;;;;;;5026069;28;20418;-79
2021/10/10 08:47:50;;;;;;;31.33;18.25;;;11.20;38.10;;;;;;5016686;28;20772;-79
2021/10/10 08:50:22;;;;;;;27.90;17.42;;;11.30;38.30;;;;;;5012166;28;20410;-77
2021/10/10 08:52:52;;;;;;;27.25;17.48;;;11.40;38.20;;;;;;5018761;28;20496;-77
2021/10/10 08:55:18;;;;;;;31.42;17.23;;;11.40;37.40;;;;;;5012304;28;20401;-75
2021/10/10 08:57:45;;;;;;;30.77;17.73;;;11.50;37.00;;;;;;5019722;28;20449;-75
2021/10/10 09:00:16;;;;;;;25.45;17.27;;;11.70;37.20;;;;;;5023194;28;20393;-76
2021/10/10 09:02:45;;;;;;;36.45;19.45;;;11.80;37.00;;;;;;5018990;28;20416;-75
2021/10/10 09:05:11;;;;;;;33.63;17.70;;;11.90;36.80;;;;;;5001255;28;20839;-78
2021/10/10 09:07:37;;;;;;;28.23;17.70;;;12.10;36.70;;;;;;5014040;28;20404;-77
2021/10/10 09:10:27;;;;;;;32.03;18.90;;;12.10;37.20;;;;;;5013218;28;20435;-78
2021/10/10 09:13:10;;;;;;;30.77;17.90;;;12.20;35.20;;;;;;5023015;28;20389;-78
2021/10/10 09:15:39;;;;;;;26.10;17.10;;;12.30;34.90;;;;;;5012290;28;20398;-77
2021/10/10 09:18:06;;;;;;;30.42;17.20;;;12.50;34.20;;;;;;5016431;28;20408;-77
2021/10/10 09:20:47;;;;;;;27.73;17.50;;;12.70;33.90;;;;;;5018451;28;20892;-78
2021/10/10 09:23:15;;;;;;;33.05;16.90;;;12.90;34.10;;;;;;5019081;28;20392;-76
2021/10/10 09:26:02;;;;;;;27.77;16.80;;;13.00;33.80;;;;;;5020460;28;20414;-78
2021/10/10 09:28:31;;;;;;;27.90;17.45;;;13.00;32.80;;;;;;5012672;28;20400;-79
2021/10/10 09:31:05;;;;;;;29.88;16.27;;;13.10;32.00;;;;;;5021660;28;20400;-78
2021/10/10 09:33:52;;;;;;;31.92;17.02;;;13.30;32.20;;;;;;5016293;28;20830;-77
2021/10/10 09:36:25;;;;;;;30.98;17.50;;;13.50;32.00;;;;;;5013100;28;20415;-79
2021/10/10 09:41:29;;;;;;;31.38;19.20;;;13.80;30.60;;;;;;5008498;28;20484;-80
2021/10/10 09:43:58;;;;;;;27.10;17.35;;;13.80;29.90;;;;;;5000381;28;20409;-77
2021/10/10 09:46:26;;;;;;;27.65;16.73;;;14.00;29.50;;;;;;5012447;28;20407;-78
2021/10/10 09:48:51;;;;;;;29.92;17.45;;;14.00;29.20;;;;;;5014795;28;20387;-79
2021/10/10 09:51:33;;;;;;;28.37;17.90;;;14.00;29.50;;;;;;5022488;28;20435;-77
2021/10/10 09:54:05;;;;;;;28.10;17.52;;;14.10;29.80;;;;;;5019431;28;20393;-80
2021/10/10 09:56:32;;;;;;;30.85;18.42;;;14.20;29.20;;;;;;5023796;28;20404;-78
2021/10/10 09:58:58;;;;;;;26.53;17.90;;;14.20;29.20;;;;;;5023686;28;20481;-78
2021/10/10 10:01:24;;;;;;;34.08;18.55;;;14.20;29.10;;;;;;5015461;28;20430;-77
2021/10/10 10:04:13;;;;;;;33.00;18.20;;;14.30;29.00;;;;;;5026441;28;20393;-76
2021/10/10 10:06:41;;;;;;;32.50;18.70;;;14.40;28.90;;;;;;5013233;28;20439;-77
2021/10/10 10:09:11;;;;;;;35.55;19.30;;;14.30;28.10;;;;;;5029072;28;20425;-77
2021/10/10 10:11:41;;;;;;;29.10;18.08;;;14.50;27.90;;;;;;5029677;28;20416;-78
2021/10/10 10:14:14;;;;;;;32.93;17.30;;;14.60;27.20;;;;;;5007039;28;20410;-79
2021/10/10 10:16:48;;;;;;;38.85;18.90;;;14.80;26.70;;;;;;5044422;28;20400;-77
2021/10/10 10:19:21;;;;;;;31.93;18.73;;;15.10;26.50;;;;;;5022530;28;20392;-76
2021/10/10 10:21:55;;;;;;;30.20;19.20;;;15.20;25.40;;;;;;5009132;28;20404;-78
2021/10/10 10:24:22;;;;;;;33.28;19.00;;;15.30;25.20;;;;;;5031541;28;20401;-77
2021/10/10 10:26:48;;;;;;;28.17;17.67;;;15.50;25.40;;;;;;5016927;28;20405;-76
2021/10/10 10:29:26;;;;;;;29.23;18.10;;;16.00;24.20;;;;;;5009563;28;20522;-76
2021/10/10 10:31:54;;;;;;;30.95;19.38;;;16.00;23.70;;;;;;5013774;28;20401;-77
2021/10/10 10:34:20;;;;;;;32.17;19.63;;;16.10;22.90;;;;;;5012963;28;20416;-78
2021/10/10 10:36:54;;;;;;;31.73;18.80;;;16.20;22.70;;;;;;5004194;28;20425;-76
2021/10/10 10:39:41;;;;;;;34.10;19.52;;;16.30;22.80;;;;;;5012220;28;20417;-76
2021/10/10 10:42:12;;;;;;;35.00;20.70;;;16.70;22.10;;;;;;5017230;28;20487;-75
2021/10/10 10:44:43;;;;;;;31.27;20.17;;;16.70;22.30;;;;;;5000361;28;20395;-76
2021/10/10 10:47:16;;;;;;;34.53;22.30;;;16.80;22.50;;;;;;5008142;28;20461;-76
2021/10/10 10:49:51;;;;;;;33.70;21.67;;;16.50;22.90;;;;;;5010150;28;20413;-75
2021/10/10 10:52:22;;;;;;;33.08;22.13;;;16.30;23.00;;;;;;5001579;28;20404;-76
2021/10/10 10:54:52;;;;;;;39.30;22.63;;;16.20;23.70;;;;;;5012143;28;20388;-75
2021/10/10 10:57:36;;;;;;;41.30;22.25;;;16.10;23.50;;;;;;5012265;28;20874;-76
2021/10/10 11:00:24;;;;;;;42.67;23.83;;;16.40;23.40;;;;;;4993185;28;20401;-76
2021/10/10 11:03:02;;;;;;;40.10;23.20;;;16.50;23.40;;;;;;5004984;28;20403;-76
2021/10/10 11:05:36;;;;;;;32.88;21.27;;;16.30;23.50;;;;;;5005398;28;20402;-76
2021/10/10 11:08:06;;;;;;;39.90;22.80;;;16.40;23.40;;;;;;5006949;28;20410;-76
2021/10/10 11:10:33;;;;;;;39.83;22.30;;;16.40;23.50;;;;;;5012044;28;20429;-76
2021/10/10 11:13:07;;;;;;;39.07;24.53;;;16.40;23.60;;;;;;5012888;28;20479;-76
2021/10/10 11:15:52;;;;;;;40.10;24.35;;;16.60;23.20;;;;;;4992708;28;20509;-76
2021/10/10 11:18:28;;;;;;;35.40;22.65;;;16.80;22.80;;;;;;5002627;28;20415;-76
2021/10/10 11:20:59;;;;;;;37.60;22.88;;;16.90;23.20;;;;;;5011190;28;20517;-76
2021/10/10 11:23:25;;;;;;;35.80;23.87;;;17.00;23.00;;;;;;5011533;28;20898;-76
2021/10/10 11:25:53;;;;;;;35.15;21.80;;;17.10;21.10;;;;;;5012032;28;20385;-76
2021/10/10 11:28:53;;;;;;;33.87;21.20;;;17.00;21.80;;;;;;5011759;28;20512;-76
2021/10/10 11:31:31;;;;;;;38.78;21.65;;;17.10;22.40;;;;;;5007167;28;20397;-77
2021/10/10 11:34:06;;;;;;;32.45;21.65;;;16.90;22.30;;;;;;5012275;28;20463;-77
2021/10/10 11:36:45;;;;;;;32.17;20.73;;;16.80;23.30;;;;;;5005930;28;20495;-76
2021/10/10 11:39:16;;;;;;;38.80;22.60;;;16.60;23.40;;;;;;5004933;28;20377;-77
2021/10/10 11:41:42;;;;;;;37.35;21.88;;;16.30;24.70;;;;;;5005519;28;20478;-76
2021/10/10 11:44:13;;;;;;;40.93;23.33;;;16.00;24.40;;;;;;5010255;28;20828;-77
2021/10/10 11:46:53;;;;;;;34.78;21.58;;;15.70;26.20;;;;;;5011822;28;20506;-77
2021/10/10 11:49:39;;;;;;;41.85;20.15;;;15.60;25.60;;;;;;5002920;28;20410;-76
2021/10/10 11:52:17;;;;;;;33.65;21.35;;;15.60;26.10;;;;;;5000097;28;20407;-76
2021/10/10 11:54:45;;;;;;;32.60;20.35;;;15.40;27.00;;;;;;5011587;28;20469;-77
2021/10/10 11:57:12;;;;;;;36.65;22.40;;;15.40;26.90;;;;;;5010727;28;20418;-77
2021/10/10 11:59:48;;;;;;;37.67;22.17;;;15.40;27.00;;;;;;5011628;28;20428;-78
2021/10/10 12:02:14;;;;;;;35.23;22.00;;;15.40;26.30;;;;;;5020397;28;20412;-77
2021/10/10 12:04:40;;;;;;;38.03;22.83;;;15.30;26.20;;;;;;5021280;28;20385;-78
2021/10/10 12:07:05;;;;;;;32.77;21.57;;;15.50;25.70;;;;;;5015848;28;20397;-78
2021/10/10 12:09:31;;;;;;;34.20;21.70;;;15.60;26.10;;;;;;5018176;28;20752;-76
2021/10/10 12:12:09;;;;;;;39.53;23.08;;;15.60;26.30;;;;;;5021872;28;20404;-76
2021/10/10 12:14:48;;;;;;;39.22;24.17;;;15.50;26.50;;;;;;5018392;28;20438;-77
2021/10/10 12:17:34;;;;;;;32.05;20.70;;;15.60;26.00;;;;;;4999718;28;20435;-78
2021/10/10 12:20:21;;;;;;;32.50;20.02;;;15.60;25.70;;;;;;5001684;28;20894;-77
2021/10/10 12:22:59;;;;;;;33.67;20.67;;;15.70;25.20;;;;;;4995748;28;20391;-77
2021/10/10 12:25:43;;;;;;;30.77;19.65;;;15.70;24.80;;;;;;5001960;28;20467;-76
2021/10/10 12:28:15;;;;;;;37.93;21.07;;;15.80;24.60;;;;;;5007434;28;20390;-77
2021/10/10 12:30:55;;;;;;;30.77;19.73;;;15.90;24.80;;;;;;5016177;28;20420;-76
2021/10/10 12:33:26;;;;;;;35.45;20.85;;;16.00;25.10;;;;;;5018068;28;20414;-78
2021/10/10 12:36:21;;;;;;;31.33;19.90;;;16.10;23.50;;;;;;5014573;28;20806;-78
2021/10/10 12:38:52;;;;;;;32.17;20.30;;;16.10;23.50;;;;;;5011987;28;20497;-76
2021/10/10 12:41:21;;;;;;;42.25;20.33;;;16.30;24.40;;;;;;5003704;28;20474;-76
2021/10/10 12:43:51;;;;;;;35.47;21.08;;;16.20;23.50;;;;;;4999437;28;20402;-76
2021/10/10 12:46:19;;;;;;;35.40;20.52;;;16.40;23.40;;;;;;4996986;28;20402;-77